Axis, Alabama
Current Conditions -  °F | °C
As of 12:53 PM on Monday 22 Dec 2014 (Local Time) from KBFM Reporting Station
Broken Clouds Broken Clouds  
Wind Chill: 68°   Ceiling: 1700
Heat Index: 68°   Visibility: 10mi
Dew Point: 63°   Wind: 9mph
Humidity: 84%   Direction: 170°S
Pressure: 29.78"   Gusts: NA
Location:  30.93°N, 88.03°W
Report Text: KBFM 221853Z 17008KT 10SM BKN017 20/17 A2978 RMK AO2 SLP085 T02000172
Loading
Personal Weather Stations






























Interactive Weather Map New forecast layout! Learn more

10-Day Weather Forecast

Advertisements
Track Severe Weather on mobile